Time;durP1;ratioP1;P1;durP2;ratioP2;P2;SDS_P1;SDS_P2;PMS_P1;PMS_P2;Temp;Humidity;BMP_temperature;BMP_pressure;BME280_temperature;BME280_humidity;BME280_pressure;Samples;Min_cycle;Max_cycle;Signal;HPM_P1;HPM_P2
2022/01/24 00:01:28;;;;;;;23.10;12.27;;;3.50;99.90;;;;;;4194012;28;20471;-82
2022/01/24 00:03:31;;;;;;;20.15;11.50;;;3.40;99.90;;;;;;4210046;28;20147;-80
2022/01/24 00:05:33;;;;;;;20.60;12.35;;;3.50;99.90;;;;;;4207632;28;20573;-82
2022/01/24 00:07:35;;;;;;;19.15;11.35;;;3.50;99.90;;;;;;4238605;28;20063;-79
2022/01/24 00:09:38;;;;;;;21.02;11.70;;;3.40;99.90;;;;;;4243219;28;20058;-80
2022/01/24 00:18:08;;;;;;;21.27;11.82;;;3.50;99.90;;;;;;4218323;28;20083;-79
2022/01/24 00:26:56;;;;;;;23.00;12.18;;;3.50;99.90;;;;;;4202235;28;20052;-80
2022/01/24 00:28:58;;;;;;;26.63;12.93;;;3.50;99.90;;;;;;4182258;28;20077;-77
2022/01/24 00:31:00;;;;;;;22.13;12.65;;;3.50;99.90;;;;;;4182233;28;20638;-80
2022/01/24 00:33:02;;;;;;;21.75;11.65;;;3.50;99.90;;;;;;4194762;28;20431;-82
2022/01/24 00:35:05;;;;;;;23.15;12.55;;;3.50;99.90;;;;;;4198683;28;20530;-78
2022/01/24 00:37:07;;;;;;;29.05;12.55;;;3.50;99.90;;;;;;4198276;28;20059;-79
2022/01/24 00:39:09;;;;;;;22.08;12.50;;;3.50;99.90;;;;;;4198250;28;20071;-79
2022/01/24 00:41:14;;;;;;;22.83;12.23;;;3.50;99.90;;;;;;4230770;28;20099;-80
2022/01/24 00:43:25;;;;;;;;;;;3.50;99.90;;;;;;4199121;28;20131;-78
2022/01/24 00:45:37;;;;;;;24.27;12.27;;;3.50;99.90;;;;;;4198618;28;19974;-79
2022/01/24 00:48:04;;;;;;;26.23;14.70;;;3.50;99.90;;;;;;4198742;28;20045;-83
2022/01/24 00:54:47;;;;;;;29.52;15.25;;;3.50;99.90;;;;;;4200090;28;20064;-80
2022/01/24 00:56:50;;;;;;;25.13;14.38;;;3.50;99.90;;;;;;4183892;28;20560;-81
2022/01/24 00:58:52;;;;;;;26.67;13.57;;;3.60;99.90;;;;;;4189408;28;20083;-78
2022/01/24 01:00:56;;;;;;;27.55;14.18;;;3.50;99.90;;;;;;4199353;28;20080;-80
2022/01/24 01:02:58;;;;;;;26.17;14.85;;;3.60;99.90;;;;;;4199826;28;20064;-81
2022/01/24 01:07:34;;;;;;;20.58;12.95;;;3.60;99.90;;;;;;4201370;28;20062;-84
2022/01/24 01:19:04;;;;;;;26.92;13.90;;;3.60;99.90;;;;;;4205659;28;21225;-80
2022/01/24 01:23:11;;;;;;;26.88;15.57;;;3.60;99.90;;;;;;4199528;28;20056;-80
2022/01/24 01:25:13;;;;;;;26.92;14.05;;;3.60;99.90;;;;;;4197246;28;20052;-80
2022/01/24 01:27:21;;;;;;;36.17;15.05;;;3.60;99.90;;;;;;4197314;28;20052;-79
2022/01/24 01:29:29;;;;;;;31.52;14.23;;;3.70;99.90;;;;;;4197415;28;20048;-78
2022/01/24 01:31:42;;;;;;;27.35;14.98;;;3.70;99.90;;;;;;4188121;28;20137;-79
2022/01/24 01:34:01;;;;;;;24.75;14.75;;;3.70;99.90;;;;;;4192741;28;20044;-81
2022/01/24 01:36:20;;;;;;;24.92;13.93;;;3.70;99.90;;;;;;4190013;28;20048;-80
2022/01/24 01:56:29;;;;;;;27.35;14.10;;;3.80;99.90;;;;;;4201806;28;20055;-79
2022/01/24 01:58:31;;;;;;;29.38;14.45;;;3.70;99.90;;;;;;4198217;28;20091;-81
2022/01/24 02:00:35;;;;;;;33.88;15.45;;;3.70;99.90;;;;;;4181633;28;20103;-79
2022/01/24 02:02:37;;;;;;;26.17;14.90;;;3.70;99.90;;;;;;4198812;28;20044;-81
2022/01/24 02:04:40;;;;;;;30.73;15.25;;;3.80;99.90;;;;;;4181647;28;20049;-78
2022/01/24 02:06:43;;;;;;;25.63;13.73;;;3.80;99.90;;;;;;4181048;28;20057;-78
2022/01/24 02:08:45;;;;;;;23.02;13.50;;;3.80;99.90;;;;;;4197256;28;20052;-80
2022/01/24 02:10:48;;;;;;;27.60;14.35;;;3.80;99.90;;;;;;4180967;28;20146;-80
2022/01/24 02:12:52;;;;;;;25.95;15.27;;;3.80;99.90;;;;;;4180622;28;20159;-79
2022/01/24 02:14:58;;;;;;;29.52;14.65;;;3.80;99.90;;;;;;4185183;28;20094;-83
2022/01/24 02:17:07;;;;;;;22.85;14.45;;;3.80;99.90;;;;;;4197962;28;20504;-80
2022/01/24 02:21:45;;;;;;;26.52;13.82;;;3.60;99.90;;;;;;4192042;28;20053;-81
2022/01/24 02:23:48;;;;;;;28.52;13.60;;;3.50;99.90;;;;;;4178773;28;20084;-80
2022/01/24 02:25:56;;;;;;;29.17;14.02;;;3.30;99.90;;;;;;4178281;28;20084;-84
2022/01/24 02:28:01;;;;;;;28.52;14.05;;;3.10;99.90;;;;;;4178498;28;20091;-83
2022/01/24 02:30:24;;;;;;;26.42;14.15;;;3.00;99.90;;;;;;4178716;28;20045;-84
2022/01/24 02:32:26;;;;;;;31.48;14.45;;;3.00;99.90;;;;;;4182616;28;20067;-79
2022/01/24 02:34:36;;;;;;;27.48;15.48;;;2.80;99.90;;;;;;4186954;28;20102;-81
2022/01/24 02:36:38;;;;;;;28.42;14.18;;;2.70;99.90;;;;;;4180206;28;20088;-81
2022/01/24 02:38:53;;;;;;;25.50;13.60;;;2.60;99.90;;;;;;4192389;28;20471;-79
2022/01/24 02:50:08;;;;;;;25.30;13.50;;;2.00;99.90;;;;;;4178968;28;20558;-79
2022/01/24 02:52:14;;;;;;;29.23;13.43;;;1.80;99.90;;;;;;4177953;28;20095;-80
2022/01/24 02:54:22;;;;;;;25.05;13.80;;;1.70;99.90;;;;;;4178709;28;20037;-79
2022/01/24 02:56:24;;;;;;;25.10;13.50;;;1.60;99.90;;;;;;4184959;28;20041;-81
2022/01/24 02:58:27;;;;;;;28.52;13.15;;;1.40;99.90;;;;;;4176423;28;20528;-80
2022/01/24 03:00:32;;;;;;;27.70;14.23;;;1.40;99.90;;;;;;4177216;28;20512;-78
2022/01/24 03:02:34;;;;;;;27.35;14.35;;;1.30;99.90;;;;;;4194020;28;20080;-80
2022/01/24 03:04:36;;;;;;;26.42;14.75;;;1.20;99.90;;;;;;4180925;28;20045;-79
2022/01/24 03:06:38;;;;;;;27.98;15.20;;;1.10;99.90;;;;;;4193782;28;20088;-80
2022/01/24 03:08:41;;;;;;;24.10;14.25;;;1.00;99.90;;;;;;4193152;28;20094;-79
2022/01/24 03:10:47;;;;;;;26.58;13.88;;;0.90;99.90;;;;;;4185534;28;20041;-79
2022/01/24 03:12:58;;;;;;;26.38;14.20;;;0.80;99.90;;;;;;4177631;28;20045;-80
2022/01/24 03:15:00;;;;;;;23.80;13.60;;;0.70;99.90;;;;;;4177421;28;20053;-80
2022/01/24 03:17:05;;;;;;;24.52;13.32;;;0.60;99.90;;;;;;4178025;28;20492;-79
2022/01/24 03:19:07;;;;;;;36.60;15.93;;;0.50;99.90;;;;;;4184395;28;20060;-79
2022/01/24 03:21:09;;;;;;;26.65;14.25;;;0.40;99.90;;;;;;4187108;28;20606;-80
2022/01/24 03:23:14;;;;;;;33.67;15.30;;;0.40;99.90;;;;;;4195177;28;20044;-80
2022/01/24 03:25:16;;;;;;;;;;;0.40;99.90;;;;;;4178850;28;20056;-81
2022/01/24 03:27:18;;;;;;;25.40;13.25;;;0.30;99.90;;;;;;4191851;28;19948;-80
2022/01/24 03:29:20;;;;;;;28.92;14.25;;;0.20;99.90;;;;;;4181028;28;20041;-80
2022/01/24 03:31:22;;;;;;;28.88;14.35;;;0.10;99.90;;;;;;4186812;28;20079;-81
2022/01/24 03:33:24;;;;;;;34.88;15.90;;;0.10;99.90;;;;;;4198458;28;20041;-86
2022/01/24 03:35:27;;;;;;;25.92;14.30;;;0.00;99.90;;;;;;4198354;28;20072;-82
2022/01/24 03:37:29;;;;;;;26.58;14.18;;;0.00;99.90;;;;;;4196548;28;20117;-81
2022/01/24 03:39:31;;;;;;;32.75;15.77;;;-0.10;99.90;;;;;;4195520;28;20080;-82
2022/01/24 03:41:33;;;;;;;27.85;14.43;;;-0.20;99.90;;;;;;4190763;28;20045;-80
2022/01/24 03:43:35;;;;;;;28.35;14.60;;;-0.20;99.90;;;;;;4192476;28;20068;-80
2022/01/24 03:45:43;;;;;;;35.55;15.88;;;-0.20;99.90;;;;;;4196085;28;20618;-78
2022/01/24 03:48:03;;;;;;;30.83;15.73;;;-0.20;99.90;;;;;;4189326;28;20055;-80
2022/01/24 03:50:07;;;;;;;31.58;15.70;;;-0.20;99.90;;;;;;4179434;28;20072;-79
2022/01/24 03:52:09;;;;;;;30.80;14.87;;;-0.20;99.90;;;;;;4181232;28;20057;-79
2022/01/24 03:54:11;;;;;;;32.70;16.45;;;-0.20;99.90;;;;;;4197307;28;20322;-80
2022/01/24 03:56:13;;;;;;;31.17;16.40;;;-0.20;99.90;;;;;;4182997;28;20049;-80
2022/01/24 03:58:16;;;;;;;30.52;15.73;;;-0.20;99.90;;;;;;4199041;28;20162;-83
2022/01/24 04:00:18;;;;;;;30.02;14.80;;;-0.30;99.90;;;;;;4198644;28;20059;-84
2022/01/24 04:02:22;;;;;;;30.45;15.23;;;-0.30;99.90;;;;;;4195335;28;20053;-79
2022/01/24 04:04:26;;;;;;;24.27;12.20;;;-0.30;99.90;;;;;;4184139;28;20059;-82
2022/01/24 04:06:27;;;;;;;30.02;15.25;;;-0.40;99.90;;;;;;4199499;28;20056;-81
2022/01/24 04:08:30;;;;;;;28.08;15.23;;;-0.40;99.90;;;;;;4199449;28;20080;-82
2022/01/24 04:10:41;;;;;;;33.30;15.00;;;-0.40;99.90;;;;;;4198787;28;20582;-87
2022/01/24 04:12:43;;;;;;;31.10;14.98;;;-0.40;99.90;;;;;;4199796;28;20041;-83
2022/01/24 04:21:46;;;;;;;31.15;16.02;;;-0.50;99.90;;;;;;4181811;28;20048;-82
2022/01/24 04:23:59;;;;;;;32.30;15.77;;;-0.60;99.90;;;;;;4216760;28;20040;-83
2022/01/24 04:26:01;;;;;;;32.95;15.98;;;-0.70;99.90;;;;;;4199240;28;20048;-82
2022/01/24 04:28:03;;;;;;;29.98;15.68;;;-0.70;99.90;;;;;;4191263;28;20558;-85
2022/01/24 04:30:06;;;;;;;29.05;15.15;;;-0.80;99.90;;;;;;4183240;28;20065;-82
2022/01/24 04:32:09;;;;;;;38.88;17.50;;;-0.80;99.90;;;;;;4183847;28;20052;-82
2022/01/24 04:34:11;;;;;;;34.22;16.48;;;-0.80;99.90;;;;;;4184040;28;20057;-82
2022/01/24 04:36:13;;;;;;;37.17;16.67;;;-0.80;99.90;;;;;;4198869;28;20099;-82
2022/01/24 04:38:15;;;;;;;30.13;14.98;;;-0.80;99.90;;;;;;4197569;28;20056;-81
2022/01/24 04:40:17;;;;;;;32.17;16.50;;;-0.80;99.90;;;;;;4199977;28;20053;-84
2022/01/24 04:42:28;;;;;;;31.73;16.08;;;-0.90;99.90;;;;;;4200410;28;20061;-82
2022/01/24 04:47:02;;;;;;;32.17;15.45;;;-0.90;99.90;;;;;;4201426;28;20048;-81
2022/01/24 04:53:49;;;;;;;33.97;16.10;;;-0.80;99.90;;;;;;4193710;28;20057;-83
2022/01/24 04:55:51;;;;;;;30.35;14.85;;;-0.80;99.90;;;;;;4190838;28;20075;-80
2022/01/24 04:57:52;;;;;;;40.55;16.88;;;-0.80;99.90;;;;;;4182960;28;20048;-81
2022/01/24 04:59:59;;;;;;;34.58;16.27;;;-0.80;99.90;;;;;;4199792;28;20056;-80
2022/01/24 05:02:02;;;;;;;37.50;16.40;;;-0.90;99.90;;;;;;4200083;28;20200;-83
2022/01/24 05:04:04;;;;;;;35.30;16.00;;;-0.80;99.90;;;;;;4198006;28;20048;-81
2022/01/24 05:06:06;;;;;;;36.53;17.65;;;-0.80;99.90;;;;;;4198165;28;20060;-80
2022/01/24 05:08:09;;;;;;;36.55;15.82;;;-0.80;99.90;;;;;;4199898;28;20104;-80
2022/01/24 05:10:26;;;;;;;33.15;16.60;;;-0.80;99.90;;;;;;4216683;28;20052;-82
2022/01/24 05:23:46;;;;;;;38.75;17.63;;;-1.00;99.90;;;;;;4199265;28;20075;-78
2022/01/24 05:25:47;;;;;;;36.50;16.58;;;-1.00;99.90;;;;;;4198270;28;20075;-81
2022/01/24 05:27:49;;;;;;;42.53;16.98;;;-1.00;99.90;;;;;;4208569;28;20052;-81
2022/01/24 05:29:51;;;;;;;42.05;16.52;;;-1.00;99.90;;;;;;4211867;28;20062;-80
2022/01/24 05:31:55;;;;;;;35.22;16.80;;;-1.00;99.90;;;;;;4197769;28;20044;-80
2022/01/24 05:33:57;;;;;;;31.75;15.52;;;-1.10;99.90;;;;;;4197847;28;20549;-80
2022/01/24 05:35:59;;;;;;;37.30;16.77;;;-1.10;99.90;;;;;;4198229;28;20428;-80
2022/01/24 05:38:01;;;;;;;41.10;17.60;;;-1.10;99.90;;;;;;4205671;28;20108;-81
2022/01/24 05:40:04;;;;;;;43.20;18.45;;;-1.10;99.90;;;;;;4212509;28;20507;-82
2022/01/24 05:42:06;;;;;;;44.58;17.48;;;-1.10;99.90;;;;;;4201800;28;20072;-81
2022/01/24 05:44:09;;;;;;;38.22;17.90;;;-1.00;99.90;;;;;;4197703;28;20056;-81
2022/01/24 05:46:11;;;;;;;37.60;18.13;;;-1.00;99.90;;;;;;4198090;28;20037;-81
2022/01/24 05:48:13;;;;;;;42.58;18.70;;;-0.90;99.90;;;;;;4197834;28;20503;-80
2022/01/24 05:50:15;;;;;;;45.08;18.02;;;-0.90;99.90;;;;;;4207326;28;20052;-84
2022/01/24 05:52:18;;;;;;;41.65;18.67;;;-0.70;99.90;;;;;;4215242;28;20515;-80
2022/01/24 05:54:20;;;;;;;46.08;19.33;;;-0.70;99.90;;;;;;4214486;28;20044;-83
2022/01/24 05:56:23;;;;;;;48.63;18.63;;;-0.60;99.90;;;;;;4215954;28;20056;-78
2022/01/24 05:58:25;;;;;;;49.10;19.65;;;-0.60;99.90;;;;;;4198250;28;20068;-81
2022/01/24 06:00:27;;;;;;;47.92;20.45;;;-0.50;99.90;;;;;;4211482;28;20048;-81
2022/01/24 06:02:29;;;;;;;48.15;19.30;;;-0.50;99.90;;;;;;4211338;28;20487;-81
2022/01/24 06:04:31;;;;;;;45.15;20.17;;;-0.50;99.90;;;;;;4213944;28;20404;-83
2022/01/24 06:06:33;;;;;;;44.03;19.23;;;-0.50;99.90;;;;;;4213257;28;20055;-83
2022/01/24 06:08:35;;;;;;;52.45;20.40;;;-0.50;99.90;;;;;;4212603;28;20048;-83
2022/01/24 06:10:38;;;;;;;44.88;18.90;;;-0.50;99.90;;;;;;4213869;28;20082;-79
2022/01/24 06:12:40;;;;;;;45.38;18.77;;;-0.60;99.90;;;;;;4213993;28;20150;-80
2022/01/24 06:14:46;;;;;;;50.90;19.52;;;-0.60;99.90;;;;;;4212218;28;20097;-81
2022/01/24 06:16:48;;;;;;;47.95;19.73;;;-0.60;99.90;;;;;;4205430;28;20087;-81
2022/01/24 06:18:50;;;;;;;42.78;19.40;;;-0.60;99.90;;;;;;4197292;28;20751;-80
2022/01/24 06:20:54;;;;;;;52.13;20.08;;;-0.60;99.90;;;;;;4199014;28;20535;-82
2022/01/24 06:22:56;;;;;;;48.08;20.13;;;-0.70;99.90;;;;;;4202571;28;20048;-82
2022/01/24 06:24:58;;;;;;;45.40;19.80;;;-0.60;99.90;;;;;;4197240;28;20044;-81
2022/01/24 06:27:16;;;;;;;52.92;20.38;;;-0.60;99.90;;;;;;4201810;28;20044;-79
2022/01/24 06:29:18;;;;;;;42.78;19.40;;;-0.70;99.90;;;;;;4196784;28;20048;-80
2022/01/24 06:31:20;;;;;;;45.25;19.00;;;-0.70;99.90;;;;;;4197235;28;20053;-81
2022/01/24 06:33:22;;;;;;;38.33;18.80;;;-0.80;99.90;;;;;;4201356;28;20049;-80
2022/01/24 06:35:25;;;;;;;41.75;17.42;;;-0.90;99.90;;;;;;4213833;28;20040;-78
2022/01/24 06:37:27;;;;;;;45.83;17.70;;;-1.00;99.90;;;;;;4212528;28;20093;-82
2022/01/24 06:39:29;;;;;;;48.17;18.95;;;-1.00;99.90;;;;;;4213755;28;20118;-79
2022/01/24 06:41:34;;;;;;;42.65;19.02;;;-1.00;99.90;;;;;;4202687;28;20064;-80
2022/01/24 06:43:36;;;;;;;44.00;20.48;;;-1.00;99.90;;;;;;4213282;28;20090;-82
2022/01/24 06:45:37;;;;;;;43.35;19.10;;;-1.00;99.90;;;;;;4213178;28;20431;-80
2022/01/24 06:47:41;;;;;;;43.22;19.55;;;-1.00;99.90;;;;;;4212972;28;20043;-80
2022/01/24 06:49:43;;;;;;;48.08;20.48;;;-1.00;99.90;;;;;;4213479;28;20047;-79
2022/01/24 06:51:45;;;;;;;60.30;22.30;;;-0.90;99.90;;;;;;4213615;28;20079;-79
2022/01/24 06:53:48;;;;;;;51.70;22.00;;;-0.90;99.90;;;;;;4212805;28;20526;-81
2022/01/24 06:55:54;;;;;;;55.58;21.60;;;-0.80;99.90;;;;;;4210787;28;20056;-79
2022/01/24 06:57:56;;;;;;;56.65;22.27;;;-0.50;99.90;;;;;;4201868;28;20044;-80
2022/01/24 06:59:58;;;;;;;59.90;23.63;;;-0.40;99.90;;;;;;4213474;28;20079;-79
2022/01/24 07:02:01;;;;;;;65.88;23.23;;;-0.20;99.90;;;;;;4214623;28;20048;-79
2022/01/24 07:04:04;;;;;;;61.80;24.17;;;-0.20;99.90;;;;;;4213499;28;20056;-80
2022/01/24 07:06:06;;;;;;;59.50;23.80;;;-0.20;99.90;;;;;;4213441;28;20146;-79
2022/01/24 07:08:07;;;;;;;58.45;24.42;;;-0.10;99.90;;;;;;4212329;28;20068;-79
2022/01/24 07:10:09;;;;;;;61.40;24.52;;;0.10;99.90;;;;;;4207941;28;20054;-81
2022/01/24 07:12:29;;;;;;;58.53;22.77;;;0.20;99.90;;;;;;4213898;28;20044;-78
2022/01/24 07:14:31;;;;;;;73.13;26.70;;;0.40;99.90;;;;;;4210097;28;20527;-80
2022/01/24 07:17:00;;;;;;;67.68;25.42;;;0.40;99.90;;;;;;4196237;28;20048;-80
2022/01/24 07:18:58;;;;;;;68.35;25.73;;;0.50;99.90;;;;;;4197925;28;20048;-78
2022/01/24 07:21:05;;;;;;;57.88;24.73;;;0.50;99.90;;;;;;4196956;28;20075;-79
2022/01/24 07:23:07;;;;;;;66.50;26.77;;;0.60;99.90;;;;;;4199192;28;20087;-79
2022/01/24 07:25:10;;;;;;;68.07;25.02;;;0.60;99.90;;;;;;4208958;28;20048;-78
2022/01/24 07:27:12;;;;;;;62.58;23.55;;;0.60;99.90;;;;;;4196968;28;20052;-82
2022/01/24 07:29:14;;;;;;;61.65;24.80;;;0.50;99.90;;;;;;4200854;28;20045;-82
2022/01/24 07:31:15;;;;;;;65.50;25.77;;;0.60;99.90;;;;;;4214267;28;20063;-79
2022/01/24 07:33:17;;;;;;;58.63;25.13;;;0.50;99.90;;;;;;4200954;28;20043;-81
2022/01/24 07:35:20;;;;;;;65.72;26.45;;;0.40;99.90;;;;;;4199890;28;20041;-81
2022/01/24 07:37:22;;;;;;;63.35;24.90;;;0.30;99.90;;;;;;4209261;28;20414;-83
2022/01/24 07:39:24;;;;;;;59.75;24.60;;;0.30;99.90;;;;;;4210960;28;20083;-81
2022/01/24 07:41:29;;;;;;;64.13;24.77;;;0.30;99.90;;;;;;4200153;28;20076;-79
2022/01/24 07:43:31;;;;;;;60.08;23.80;;;0.30;99.90;;;;;;4200487;28;20060;-81
2022/01/24 07:45:33;;;;;;;60.05;25.00;;;0.30;99.90;;;;;;4199600;28;20091;-79
2022/01/24 07:47:35;;;;;;;78.68;32.72;;;0.20;99.90;;;;;;4203900;28;20503;-81
2022/01/24 07:49:37;;;;;;;88.35;37.35;;;0.10;99.90;;;;;;4205374;28;20071;-81
2022/01/24 07:51:41;;;;;;;90.43;35.17;;;0.00;99.90;;;;;;4199692;28;20048;-80
2022/01/24 07:53:44;;;;;;;82.25;33.33;;;-0.10;99.90;;;;;;4214166;28;20048;-80
2022/01/24 07:55:54;;;;;;;70.13;29.00;;;-0.20;99.90;;;;;;4214646;28;20101;-84
2022/01/24 07:57:56;;;;;;;63.85;28.10;;;-0.30;99.90;;;;;;4210905;28;20114;-83
2022/01/24 07:59:58;;;;;;;59.13;26.48;;;-0.40;99.90;;;;;;4214626;28;20942;-82
2022/01/24 08:02:00;;;;;;;59.88;26.40;;;-0.50;99.90;;;;;;4210549;28;20698;-81
2022/01/24 08:04:02;;;;;;;53.75;24.58;;;-0.60;99.90;;;;;;4215524;28;20115;-80
2022/01/24 08:06:04;;;;;;;64.07;27.30;;;-0.60;99.90;;;;;;4215786;28;20075;-83
2022/01/24 08:08:07;;;;;;;62.53;27.05;;;-0.60;99.90;;;;;;4210741;28;20040;-81
2022/01/24 08:10:09;;;;;;;55.38;23.33;;;-0.70;99.90;;;;;;4212998;28;20041;-81
2022/01/24 08:12:11;;;;;;;59.03;25.40;;;-0.70;99.90;;;;;;4208442;28;20044;-82
2022/01/24 08:14:13;;;;;;;87.95;36.10;;;-0.70;99.90;;;;;;4232245;28;20048;-80
2022/01/24 08:16:15;;;;;;;77.28;32.17;;;-0.80;99.90;;;;;;4213407;28;20044;-79
2022/01/24 08:18:17;;;;;;;81.65;33.42;;;-0.80;99.90;;;;;;4215924;28;20044;-80
2022/01/24 08:20:20;;;;;;;68.05;28.48;;;-0.80;99.90;;;;;;4212313;28;20044;-81
2022/01/24 08:22:43;;;;;;;82.10;31.27;;;-0.80;99.90;;;;;;4212911;28;20060;-83
2022/01/24 08:24:46;;;;;;;77.15;30.40;;;-0.80;99.90;;;;;;4207949;28;20415;-80
2022/01/24 08:26:48;;;;;;;68.18;29.40;;;-0.90;99.90;;;;;;4223062;28;20404;-81
2022/01/24 08:28:50;;;;;;;84.30;32.15;;;-0.90;99.90;;;;;;4211897;28;20301;-82
2022/01/24 08:30:53;;;;;;;58.13;27.00;;;-0.90;99.90;;;;;;4214676;28;20138;-80
2022/01/24 08:32:55;;;;;;;56.95;23.88;;;-0.80;99.90;;;;;;4208295;28;20052;-82
2022/01/24 08:34:58;;;;;;;56.92;24.05;;;-0.80;99.90;;;;;;4227949;28;20067;-80
2022/01/24 08:37:05;;;;;;;59.25;24.08;;;-0.80;99.90;;;;;;4215579;28;20056;-81
2022/01/24 08:39:07;;;;;;;53.85;24.33;;;-0.80;99.90;;;;;;4213197;28;20075;-80
2022/01/24 08:41:18;;;;;;;60.05;26.92;;;-0.80;99.90;;;;;;4214739;28;20044;-79
2022/01/24 08:45:45;;;;;;;64.10;27.77;;;-0.80;99.90;;;;;;4211492;28;20052;-82
2022/01/24 08:47:47;;;;;;;67.95;29.35;;;-0.80;99.90;;;;;;4228658;28;20105;-81
2022/01/24 08:49:50;;;;;;;74.38;30.20;;;-0.80;99.90;;;;;;4214274;28;20086;-80
2022/01/24 08:51:52;;;;;;;73.35;29.80;;;-0.70;99.90;;;;;;4211849;28;20110;-84
2022/01/24 08:54:08;;;;;;;64.07;28.70;;;-0.70;99.90;;;;;;4208861;28;20101;-81
2022/01/24 08:56:13;;;;;;;66.65;29.15;;;-0.80;99.90;;;;;;4208695;28;20075;-80
2022/01/24 08:58:16;;;;;;;57.60;27.70;;;-0.70;99.90;;;;;;4208734;28;20048;-80
2022/01/24 09:00:18;;;;;;;64.13;29.40;;;-0.80;99.90;;;;;;4223448;28;20044;-82
2022/01/24 09:02:21;;;;;;;69.18;30.35;;;-0.70;99.90;;;;;;4209103;28;20040;-80
2022/01/24 09:04:24;;;;;;;74.05;30.75;;;-0.70;99.90;;;;;;4208004;28;20446;-80
2022/01/24 09:06:28;;;;;;;71.95;32.80;;;-0.70;99.90;;;;;;4212061;28;20067;-78
2022/01/24 09:08:30;;;;;;;76.65;35.53;;;-0.70;99.90;;;;;;4211806;28;20036;-81
2022/01/24 09:10:34;;;;;;;67.88;29.95;;;-0.60;99.90;;;;;;4211794;28;20075;-81
2022/01/24 09:12:36;;;;;;;68.00;27.58;;;-0.50;99.90;;;;;;4209404;28;20040;-80
2022/01/24 09:14:47;;;;;;;62.45;27.45;;;-0.50;99.90;;;;;;4213549;28;20044;-82
2022/01/24 09:16:51;;;;;;;74.10;31.25;;;-0.40;99.90;;;;;;4204300;28;20052;-80
2022/01/24 09:18:54;;;;;;;76.20;29.13;;;-0.40;99.90;;;;;;4205405;28;20045;-80
2022/01/24 09:20:56;;;;;;;66.88;30.23;;;-0.40;99.90;;;;;;4211451;28;20056;-81
2022/01/24 09:22:58;;;;;;;67.18;28.30;;;-0.40;99.90;;;;;;4206968;28;20545;-80
2022/01/24 09:25:01;;;;;;;66.72;29.48;;;-0.40;99.90;;;;;;4214073;28;20511;-81
2022/01/24 09:27:04;;;;;;;69.85;28.23;;;-0.40;99.90;;;;;;4197771;28;20615;-80
2022/01/24 09:29:06;;;;;;;71.25;28.98;;;-0.40;99.90;;;;;;4197364;28;20044;-80
2022/01/24 09:31:07;;;;;;;61.78;26.60;;;-0.30;99.90;;;;;;4197072;28;20080;-82
2022/01/24 09:33:13;;;;;;;61.92;25.45;;;-0.30;99.90;;;;;;4214052;28;20341;-79
2022/01/24 09:35:16;;;;;;;79.47;33.47;;;-0.30;99.90;;;;;;4207738;28;20076;-82
2022/01/24 09:37:18;;;;;;;77.63;32.97;;;-0.20;99.90;;;;;;4213705;28;20040;-80
2022/01/24 09:39:20;;;;;;;71.22;28.70;;;-0.10;99.90;;;;;;4197035;28;20542;-80
2022/01/24 09:41:22;;;;;;;67.25;28.40;;;0.00;99.90;;;;;;4196896;28;20087;-82
2022/01/24 09:43:24;;;;;;;69.40;27.33;;;0.10;99.90;;;;;;4198271;28;20048;-81
2022/01/24 09:45:27;;;;;;;75.63;26.70;;;0.30;99.90;;;;;;4210433;28;20044;-83
2022/01/24 09:47:30;;;;;;;67.10;28.17;;;0.40;99.90;;;;;;4214288;28;20066;-82
2022/01/24 09:49:32;;;;;;;66.15;27.45;;;0.60;99.90;;;;;;4207845;28;20150;-80
2022/01/24 09:51:34;;;;;;;69.93;27.20;;;0.70;99.90;;;;;;4213372;28;20052;-83
2022/01/24 09:53:37;;;;;;;72.72;27.50;;;0.80;99.90;;;;;;4212264;28;20138;-79
2022/01/24 09:55:39;;;;;;;71.43;27.10;;;0.90;99.90;;;;;;4213929;28;20040;-79
2022/01/24 09:57:42;;;;;;;76.07;30.60;;;1.10;99.90;;;;;;4195554;28;20078;-80
2022/01/24 09:59:44;;;;;;;80.40;35.03;;;1.20;99.90;;;;;;4208719;28;20051;-80
2022/01/24 10:01:46;;;;;;;74.13;34.22;;;1.30;99.90;;;;;;4210407;28;20135;-81
2022/01/24 10:04:25;;;;;;;122.90;44.25;;;1.40;99.90;;;;;;4213579;28;20056;-83
2022/01/24 10:06:27;;;;;;;91.57;35.70;;;1.60;99.90;;;;;;4173135;28;20567;-82
2022/01/24 10:08:30;;;;;;;84.40;35.70;;;1.60;99.90;;;;;;4192500;28;20087;-80
2022/01/24 10:10:39;;;;;;;211.85;86.28;;;1.80;99.90;;;;;;4200311;28;20052;-80
2022/01/24 10:18:06;;;;;;;88.22;37.45;;;2.00;99.90;;;;;;4212314;28;20159;-79
2022/01/24 10:20:35;;;;;;;79.22;33.95;;;2.10;99.90;;;;;;4208726;28;20066;-81
2022/01/24 10:22:38;;;;;;;84.50;34.85;;;2.20;99.90;;;;;;4197446;28;20602;-81
2022/01/24 10:24:45;;;;;;;107.25;47.10;;;2.30;99.90;;;;;;4212970;28;20516;-79
2022/01/24 10:27:23;;;;;;;70.18;30.20;;;2.40;99.90;;;;;;4197803;28;20053;-81
2022/01/24 10:29:26;;;;;;;77.45;28.15;;;2.50;99.90;;;;;;4214007;28;20044;-81
2022/01/24 10:31:29;;;;;;;69.28;30.75;;;2.60;99.90;;;;;;4212354;28;20072;-80
2022/01/24 10:33:31;;;;;;;65.63;29.10;;;2.70;99.90;;;;;;4206413;28;20101;-80
2022/01/24 10:35:53;;;;;;;66.38;28.45;;;2.80;99.90;;;;;;4199019;28;20049;-86
2022/01/24 10:40:48;;;;;;;53.95;26.20;;;3.00;99.90;;;;;;4196443;28;20045;-79
2022/01/24 10:42:55;;;;;;;63.42;28.40;;;3.10;99.90;;;;;;4196891;28;20052;-81
2022/01/24 10:45:11;;;;;;;62.17;27.52;;;3.20;99.90;;;;;;4197538;28;20105;-81
2022/01/24 10:47:30;;;;;;;58.90;27.05;;;3.30;99.90;;;;;;4202949;28;20055;-78
2022/01/24 10:49:32;;;;;;;55.55;26.60;;;3.40;99.90;;;;;;4212845;28;20048;-82
2022/01/24 10:51:39;;;;;;;58.70;27.35;;;3.40;99.90;;;;;;4196070;28;20064;-77
2022/01/24 10:53:45;;;;;;;58.33;26.48;;;3.60;99.90;;;;;;4195445;28;20130;-81
2022/01/24 10:55:48;;;;;;;66.85;29.00;;;3.70;99.90;;;;;;4210668;28;20136;-81
2022/01/24 10:57:56;;;;;;;55.03;25.75;;;3.80;99.90;;;;;;4213169;28;20075;-82
2022/01/24 11:00:08;;;;;;;50.00;24.52;;;3.90;99.90;;;;;;4213428;28;20573;-82
2022/01/24 11:02:15;;;;;;;49.30;24.52;;;4.00;99.90;;;;;;4211268;28;20143;-79
2022/01/24 11:04:19;;;;;;;53.60;25.77;;;4.10;99.90;;;;;;4212540;28;20127;-82
2022/01/24 11:06:36;;;;;;;47.53;23.83;;;4.20;99.90;;;;;;4195443;28;20049;-82
2022/01/24 11:08:38;;;;;;;44.88;22.20;;;4.30;99.90;;;;;;4197992;28;20048;-80
2022/01/24 11:10:47;;;;;;;44.20;23.50;;;4.40;99.90;;;;;;4198270;28;20072;-79
2022/01/24 11:12:51;;;;;;;46.53;22.95;;;4.50;99.90;;;;;;4211781;28;20063;-79
2022/01/24 11:14:54;;;;;;;43.30;23.40;;;4.60;99.90;;;;;;4213831;28;20090;-79
2022/01/24 11:16:58;;;;;;;44.85;23.42;;;4.70;99.90;;;;;;4209894;28;20439;-78
2022/01/24 11:19:03;;;;;;;40.30;21.95;;;4.80;99.90;;;;;;4208471;28;20553;-79
2022/01/24 11:21:12;;;;;;;39.67;21.67;;;4.80;99.90;;;;;;4209438;28;20051;-76
2022/01/24 11:23:20;;;;;;;40.78;20.92;;;5.00;99.90;;;;;;4211234;28;20436;-78
2022/01/24 11:25:24;;;;;;;46.38;22.20;;;5.10;99.90;;;;;;4228109;28;20131;-81
2022/01/24 11:27:27;;;;;;;45.05;24.02;;;5.20;99.90;;;;;;4209383;28;20036;-75
2022/01/24 11:29:30;;;;;;;46.95;25.05;;;5.30;99.90;;;;;;4211401;28;20044;-78
2022/01/24 11:31:50;;;;;;;46.10;23.65;;;5.40;99.90;;;;;;4210766;28;20090;-77
2022/01/24 11:34:09;;;;;;;82.18;44.08;;;5.50;99.90;;;;;;4205031;28;20075;-78
2022/01/24 11:36:11;;;;;;;40.28;22.15;;;5.70;99.90;;;;;;4211609;28;20051;-76
2022/01/24 11:38:33;;;;;;;54.25;28.35;;;5.70;99.90;;;;;;4211576;28;20055;-78
2022/01/24 11:40:46;;;;;;;41.58;22.15;;;5.90;99.90;;;;;;4209308;28;20084;-80
2022/01/24 11:42:50;;;;;;;40.67;20.27;;;6.00;99.90;;;;;;4208428;28;20097;-79
2022/01/24 11:45:11;;;;;;;34.08;19.10;;;6.00;99.90;;;;;;4207798;28;20076;-78
2022/01/24 11:47:22;;;;;;;48.20;23.73;;;6.10;99.90;;;;;;4201925;28;20051;-78
2022/01/24 11:49:27;;;;;;;43.35;21.85;;;6.20;99.90;;;;;;4211537;28;20048;-77
2022/01/24 11:51:33;;;;;;;37.10;20.02;;;6.20;99.90;;;;;;4209333;28;20076;-79
2022/01/24 11:53:43;;;;;;;48.67;23.80;;;6.20;99.90;;;;;;4211476;28;20044;-80
2022/01/24 11:55:45;;;;;;;40.20;21.83;;;6.30;99.90;;;;;;4212960;28;20051;-79
2022/01/24 11:57:50;;;;;;;40.20;21.33;;;6.40;99.90;;;;;;4209221;28;20764;-79
2022/01/24 12:00:01;;;;;;;40.78;22.38;;;6.40;99.90;;;;;;4211321;28;20513;-79
2022/01/24 12:02:12;;;;;;;42.63;22.27;;;6.40;99.90;;;;;;4195057;28;20060;-80
2022/01/24 12:04:14;;;;;;;32.20;17.65;;;6.50;99.90;;;;;;4195680;28;20049;-80
2022/01/24 12:06:19;;;;;;;30.30;18.23;;;6.60;99.90;;;;;;4198684;28;20044;-79
2022/01/24 12:08:42;;;;;;;32.47;18.52;;;6.70;99.90;;;;;;4203703;28;20143;-81
2022/01/24 12:10:47;;;;;;;32.50;19.45;;;6.70;99.90;;;;;;4200294;28;20037;-79
2022/01/24 12:12:56;;;;;;;31.48;18.33;;;6.80;99.90;;;;;;4210325;28;20412;-80
2022/01/24 12:14:58;;;;;;;38.20;20.65;;;6.80;99.90;;;;;;4208859;28;20048;-81
2022/01/24 12:17:00;;;;;;;31.50;18.17;;;6.90;99.90;;;;;;4214423;28;20044;-81